This is the latest recevied weather packets stored in our database for station/object W7BL. If no packets are shown the sender has not sent any weather packets the latest 10 day(s).
| Time | Temp. | Humidity | Pressure | Rain* | Wind** | Luminosity | Snow |
|---|---|---|---|---|---|---|---|
| 1778068614 | 8.89° C | 77% | - | 0 mm | - | - | - |
| 1778068312 | 9.44° C | 76% | - | 0 mm | - | - | - |
| 1778068009 | 9.44° C | 75% | - | 0 mm | - | - | - |
| 1778067707 | 10° C | 73% | - | 0 mm | - | - | - |
| 1778067405 | 10° C | 72% | - | 0 mm | - | - | - |
| 1778067102 | 10.56° C | 72% | - | 0 mm | - | - | - |
| 1778066798 | 10.56° C | 72% | - | 0 mm | - | - | - |
| 1778066496 | 10.56° C | 72% | - | 0 mm | - | - | - |
| 1778066193 | 10° C | 74% | - | 0 mm | - | - | - |
| 1778065891 | 10° C | 76% | - | 0 mm | - | - | - |
| 1778065588 | 8.33° C | 84% | - | 0 mm | - | - | - |
| 1778065285 | 8.33° C | 83% | - | 0 mm | - | - | - |
| 1778064982 | 8.33° C | 84% | - | 0 mm | - | - | - |
| 1778064679 | 8.33° C | 84% | - | 0 mm | - | - | - |
| 1778064377 | 8.33° C | 84% | - | 0 mm | - | - | - |
| 1778064074 | 8.33° C | 84% | - | 0 mm | - | - | - |
| 1778063772 | 8.33° C | 84% | - | 0 mm | - | - | - |
| 1778063468 | 7.78° C | 84% | - | 0 mm | - | - | - |
| 1778063166 | 8.33° C | 84% | - | 0 mm | - | - | - |
| 1778062864 | 8.33° C | 83% | - | 0 mm | - | - | - |
| 1778062560 | 8.33° C | 83% | - | 0 mm | - | - | - |
| 1778062257 | 8.33° C | 83% | - | 0 mm | - | - | - |
| 1778061955 | 8.33° C | 83% | - | 0 mm | - | - | - |
| 1778061653 | 8.33° C | 83% | - | 0 mm | - | - | - |
| 1778061352 | 8.33° C | 83% | - | 0 mm | - | - | - |
* Rain latest hour (hover to see other rain measurements)
** Current wind speed in m/s (hover to see current wind gust speed)